createdAt,value
2019-04-27T00:02:09.401Z,88.70
2019-04-27T00:04:56.812Z,80.40
2019-04-27T00:07:44.224Z,86.35
2019-04-27T00:10:33.421Z,79.00
2019-04-27T00:16:05.613Z,88.27
2019-04-27T00:18:49.700Z,96.80
2019-04-27T00:21:38.087Z,85.07
2019-04-27T00:24:06.448Z,83.87
2019-04-27T00:26:34.731Z,84.63
2019-04-27T00:29:03.829Z,87.13
2019-04-27T00:31:33.634Z,73.07
2019-04-27T00:34:03.575Z,84.92
2019-04-27T00:36:51.186Z,87.53
2019-04-27T00:39:38.597Z,78.17
2019-04-27T00:44:45.862Z,84.33
2019-04-27T00:47:14.154Z,76.65
2019-04-27T00:49:44.230Z,89.33
2019-04-27T00:52:13.899Z,85.17
2019-04-27T00:54:44.004Z,89.07
2019-04-27T00:57:33.112Z,82.15
2019-04-27T01:00:20.759Z,94.40
2019-04-27T01:08:17.041Z,87.53
2019-04-27T01:10:45.344Z,90.83
2019-04-27T01:13:13.614Z,96.17
2019-04-27T01:15:43.046Z,94.97
2019-04-27T01:18:15.398Z,102.00
2019-04-27T01:20:41.916Z,103.53
2019-04-27T01:23:10.822Z,104.87
2019-04-27T01:25:59.737Z,95.13
2019-04-27T01:28:48.960Z,91.90
2019-04-27T01:34:06.116Z,98.07
2019-04-27T01:36:34.403Z,100.67
2019-04-27T01:41:41.682Z,90.38
2019-04-27T01:44:10.049Z,90.15
2019-04-27T01:46:39.616Z,87.47
2019-04-27T01:49:09.210Z,88.10
2019-04-27T01:51:39.111Z,85.93
2019-04-27T01:56:49.147Z,93.03
2019-04-27T01:59:17.420Z,80.53
2019-04-27T02:02:04.810Z,81.90
2019-04-27T02:07:12.129Z,87.65
2019-04-27T02:09:40.408Z,80.70
2019-04-27T02:12:09.361Z,85.13
2019-04-27T02:14:39.061Z,90.97
2019-04-27T02:17:50.927Z,84.67
2019-04-27T02:20:19.758Z,85.27
2019-04-27T02:22:50.746Z,96.10
2019-04-27T02:25:20.951Z,94.03
2019-04-27T02:30:46.966Z,84.17
2019-04-27T02:33:34.377Z,94.27
2019-04-27T02:36:02.681Z,97.03
2019-04-27T02:38:30.955Z,99.60
2019-04-27T02:41:39.996Z,85.27
2019-04-27T02:44:30.116Z,84.90
2019-04-27T02:47:00.342Z,79.30
2019-04-27T02:49:30.428Z,86.75
2019-04-27T02:52:19.699Z,86.40
2019-04-27T02:54:50.266Z,83.97
2019-04-27T02:57:19.837Z,83.40
2019-04-27T02:59:50.018Z,85.00
2019-04-27T03:04:56.553Z,85.73
2019-04-27T03:07:24.835Z,80.43
2019-04-27T03:09:53.124Z,85.87
2019-04-27T03:15:20.556Z,92.20
2019-04-27T03:18:09.910Z,85.10
2019-04-27T03:23:19.887Z,87.12
2019-04-27T03:26:06.716Z,79.55
2019-04-27T03:28:34.993Z,92.60
2019-04-27T03:31:03.348Z,94.73
2019-04-27T03:33:32.672Z,85.57
2019-04-27T03:36:02.963Z,97.50
2019-04-27T03:38:31.634Z,96.35
2019-04-27T03:41:00.579Z,108.97
2019-04-27T03:43:30.391Z,107.37
2019-04-27T03:46:00.557Z,101.33
2019-04-27T03:48:29.549Z,113.90
2019-04-27T03:51:19.927Z,119.37
2019-04-27T03:59:34.853Z,157.07
2019-04-27T04:02:03.154Z,130.57
2019-04-27T04:04:32.790Z,136.33
2019-04-27T04:07:20.800Z,141.68
2019-04-27T04:09:50.265Z,156.72
2019-04-27T04:12:40.049Z,150.35
2019-04-27T04:17:49.553Z,152.93
2019-04-27T04:20:19.577Z,151.53
2019-04-27T04:22:47.324Z,147.20
2019-04-27T04:25:15.604Z,170.50
2019-04-27T04:27:43.894Z,152.07
2019-04-27T04:30:12.712Z,163.10
2019-04-27T04:32:42.260Z,153.47
2019-04-27T04:35:32.615Z,168.82
2019-04-27T04:38:13.144Z,158.95
2019-04-27T04:41:00.536Z,133.72
2019-04-27T04:43:49.071Z,136.90
2019-04-27T04:46:39.778Z,128.17
2019-04-27T04:49:09.288Z,156.50
2019-04-27T04:51:37.072Z,143.68
2019-04-27T04:54:05.376Z,157.27
2019-04-27T04:56:33.632Z,154.43
2019-04-27T04:59:01.917Z,149.50
2019-04-27T05:01:30.203Z,157.83
2019-04-27T05:03:58.997Z,143.83
2019-04-27T05:06:29.266Z,156.17
2019-04-27T05:08:59.462Z,172.40
2019-04-27T05:11:29.759Z,170.80
2019-04-27T05:13:59.336Z,241.77
2019-04-27T05:16:28.707Z,245.70
2019-04-27T05:18:57.056Z,213.63
2019-04-27T05:21:44.446Z,170.60
2019-04-27T05:24:12.727Z,175.13
2019-04-27T05:26:41.009Z,220.45
2019-04-27T05:29:09.342Z,157.62
2019-04-27T05:31:38.848Z,217.25
2019-04-27T05:34:09.398Z,150.70
2019-04-27T05:36:43.551Z,180.80
2019-04-27T05:39:09.608Z,128.90
2019-04-27T05:41:39.308Z,146.40
2019-04-27T05:52:33.786Z,133.60
2019-04-27T05:55:02.061Z,165.40
2019-04-27T05:57:31.442Z,159.83
2019-04-27T06:00:02.325Z,167.50
2019-04-27T06:02:30.557Z,173.40
2019-04-27T06:05:00.011Z,160.13
2019-04-27T06:07:29.608Z,144.67
2019-04-27T06:09:59.829Z,141.37
2019-04-27T06:12:29.659Z,146.75
2019-04-27T06:14:59.963Z,157.87
2019-04-27T06:17:40.900Z,143.17
2019-04-27T06:20:09.261Z,132.70
2019-04-27T06:22:38.992Z,107.93
2019-04-27T06:25:11.305Z,114.97
2019-04-27T06:27:39.581Z,99.23
2019-04-27T06:30:09.330Z,106.03
2019-04-27T06:32:39.319Z,98.78
2019-04-27T06:35:40.971Z,87.83
2019-04-27T06:38:10.189Z,88.80
2019-04-27T06:40:39.276Z,84.53
2019-04-27T06:43:08.650Z,84.10
2019-04-27T06:45:38.803Z,90.27
2019-04-27T06:48:09.473Z,80.67
2019-04-27T06:50:38.986Z,78.50
2019-04-27T06:53:09.089Z,74.97
2019-04-27T06:55:39.188Z,69.93
2019-04-27T06:58:08.995Z,65.87
2019-04-27T07:00:39.418Z,61.90
2019-04-27T07:03:10.298Z,61.97
2019-04-27T07:05:38.806Z,52.43
2019-04-27T07:08:08.987Z,54.18
2019-04-27T07:10:39.150Z,54.03
2019-04-27T07:13:09.368Z,63.90
2019-04-27T07:15:38.700Z,51.13
2019-04-27T07:18:09.609Z,53.33
2019-04-27T07:20:38.872Z,45.73
2019-04-27T07:23:09.412Z,43.60
2019-04-27T07:25:38.889Z,47.30
2019-04-27T07:28:09.156Z,38.23
2019-04-27T07:30:38.824Z,40.10
2019-04-27T07:33:08.755Z,37.37
2019-04-27T07:35:39.276Z,33.60
2019-04-27T07:38:09.717Z,34.35
2019-04-27T07:40:40.013Z,40.17
2019-04-27T07:45:56.949Z,35.53
2019-04-27T07:48:25.227Z,31.27
2019-04-27T07:50:53.508Z,34.83
2019-04-27T07:53:21.800Z,36.42
2019-04-27T07:55:50.095Z,35.83
2019-04-27T07:58:21.909Z,34.93
2019-04-27T08:00:49.201Z,31.60
2019-04-27T08:03:19.525Z,31.43
2019-04-27T08:05:49.103Z,31.73
2019-04-27T08:08:18.983Z,28.85
2019-04-27T08:10:50.141Z,30.77
2019-04-27T08:13:19.502Z,31.83
2019-04-27T08:15:49.633Z,32.33
2019-04-27T08:18:18.938Z,33.67
2019-04-27T08:20:49.076Z,29.40
2019-04-27T08:23:19.547Z,30.65
2019-04-27T08:25:48.986Z,32.17
2019-04-27T08:28:38.634Z,27.10
2019-04-27T08:31:26.083Z,29.50
2019-04-27T08:33:54.366Z,28.02
2019-04-27T08:36:22.667Z,27.02
2019-04-27T08:38:50.951Z,25.90
2019-04-27T08:41:19.661Z,25.10
2019-04-27T08:43:49.275Z,25.38
2019-04-27T08:46:18.666Z,23.70
2019-04-27T08:48:49.006Z,22.40
2019-04-27T08:51:19.463Z,23.50
2019-04-27T08:53:47.667Z,21.40
2019-04-27T08:56:15.948Z,23.60
2019-04-27T08:58:44.232Z,15.17
2019-04-27T09:01:12.504Z,16.93
2019-04-27T09:03:40.794Z,15.60
2019-04-27T09:11:46.209Z,10.20
2019-04-27T09:22:40.665Z,7.87
2019-04-27T09:25:09.466Z,7.10
2019-04-27T09:27:39.136Z,7.50
2019-04-27T09:32:46.558Z,7.00
2019-04-27T09:35:16.159Z,7.78
2019-04-27T09:37:45.864Z,7.42
2019-04-27T09:40:15.082Z,7.78
2019-04-27T09:42:43.351Z,7.00
2019-04-27T09:45:11.710Z,9.23
2019-04-27T09:47:39.992Z,8.40
2019-04-27T09:50:08.431Z,8.50
2019-04-27T09:52:36.705Z,8.93
2019-04-27T09:55:38.569Z,9.18
2019-04-27T09:58:06.863Z,7.70
2019-04-27T10:00:36.454Z,8.60
2019-04-27T10:03:06.595Z,9.28
2019-04-27T10:05:36.695Z,8.83
2019-04-27T10:08:06.183Z,5.50
2019-04-27T10:10:36.963Z,5.50
2019-04-27T10:13:06.824Z,5.03
2019-04-27T10:15:35.646Z,4.70
2019-04-27T10:18:06.088Z,4.00
2019-04-27T10:20:39.010Z,4.72
2019-04-27T10:23:06.207Z,3.67
2019-04-27T10:28:37.269Z,3.47
2019-04-27T10:31:07.084Z,3.80
2019-04-27T10:33:36.723Z,3.50
2019-04-27T10:36:06.479Z,4.25
2019-04-27T10:38:35.958Z,4.58
2019-04-27T10:41:05.685Z,4.37
2019-04-27T10:43:34.422Z,4.10
2019-04-27T10:46:02.693Z,4.90
2019-04-27T10:48:30.968Z,4.22
2019-04-27T10:50:59.239Z,4.03
2019-04-27T10:53:27.508Z,2.53
2019-04-27T10:55:56.579Z,2.20
2019-04-27T10:58:38.683Z,2.90
2019-04-27T11:04:05.945Z,3.20
2019-04-27T11:09:23.248Z,3.23
2019-04-27T11:11:51.513Z,2.60
2019-04-27T11:14:19.778Z,1.80
2019-04-27T11:16:48.071Z,1.82
2019-04-27T11:19:16.920Z,2.00
2019-04-27T11:21:46.344Z,1.42
2019-04-27T11:24:14.609Z,1.57
2019-04-27T11:26:42.903Z,1.50
2019-04-27T11:29:11.170Z,1.70
2019-04-27T11:31:39.516Z,3.30
2019-04-27T11:39:36.002Z,1.30
2019-04-27T11:42:05.747Z,2.43
2019-04-27T11:44:35.857Z,1.80
2019-04-27T11:47:05.835Z,4.47
2019-04-27T11:49:35.870Z,1.17
2019-04-27T11:52:05.728Z,1.50
2019-04-27T11:54:35.609Z,2.13
2019-04-27T11:57:04.099Z,3.67
2019-04-27T11:59:32.366Z,2.27
2019-04-27T12:02:00.651Z,1.70
2019-04-27T12:04:28.924Z,2.03
2019-04-27T12:06:57.186Z,2.60
2019-04-27T12:09:25.456Z,2.17
2019-04-27T12:11:53.752Z,1.93
2019-04-27T12:14:22.015Z,1.60
2019-04-27T12:16:50.303Z,1.70
2019-04-27T12:19:18.559Z,1.40
2019-04-27T12:21:46.833Z,3.50
2019-04-27T12:24:16.105Z,1.97
2019-04-27T12:27:05.781Z,1.97
2019-04-27T12:29:53.321Z,2.30
2019-04-27T12:32:21.976Z,2.20
2019-04-27T12:34:50.251Z,1.72
2019-04-27T12:37:18.528Z,1.40
2019-04-27T12:39:46.808Z,1.90
2019-04-27T12:42:16.043Z,1.95
2019-04-27T12:44:45.111Z,1.37
2019-04-27T12:47:13.383Z,1.93
2019-04-27T12:49:41.659Z,1.40
2019-04-27T12:52:09.939Z,2.83
2019-04-27T12:54:57.321Z,1.20
2019-04-27T12:57:44.716Z,1.20
2019-04-27T13:00:46.247Z,0.90
2019-04-27T13:03:16.086Z,1.40
2019-04-27T13:08:13.678Z,1.60
2019-04-27T13:10:42.017Z,1.73
2019-04-27T13:13:10.297Z,1.50
2019-04-27T13:15:38.569Z,1.77
2019-04-27T13:18:06.839Z,1.63
2019-04-27T13:20:35.882Z,1.50
2019-04-27T13:23:07.089Z,2.35
2019-04-27T13:25:38.229Z,4.20
2019-04-27T13:28:05.712Z,1.65
2019-04-27T13:30:35.783Z,1.50
2019-04-27T13:33:05.319Z,1.40
2019-04-27T13:36:13.647Z,2.37
2019-04-27T13:38:41.912Z,1.43
2019-04-27T13:43:49.141Z,2.53
2019-04-27T13:46:36.531Z,2.58
2019-04-27T13:49:24.013Z,1.50
2019-04-27T13:54:31.235Z,2.17
2019-04-27T13:56:59.515Z,1.50
2019-04-27T13:59:27.790Z,1.92
2019-04-27T14:01:56.059Z,1.72
2019-04-27T14:04:24.329Z,3.60
2019-04-27T14:06:52.671Z,6.80
2019-04-27T14:09:20.960Z,8.40
2019-04-27T14:11:49.219Z,10.77
2019-04-27T14:14:18.433Z,11.03
2019-04-27T14:17:07.869Z,10.10
2019-04-27T14:19:36.819Z,11.27
2019-04-27T14:22:05.083Z,12.33
2019-04-27T14:24:52.531Z,13.63
2019-04-27T14:30:49.739Z,13.15
2019-04-27T14:33:18.581Z,8.80
2019-04-27T14:35:49.820Z,9.00
2019-04-27T14:38:19.135Z,8.95
2019-04-27T14:40:50.270Z,8.37
2019-04-27T14:43:18.948Z,8.67
2019-04-27T14:45:48.563Z,8.03
2019-04-27T14:48:18.510Z,9.60
2019-04-27T14:50:48.558Z,10.07
2019-04-27T14:53:17.993Z,8.13
2019-04-27T14:55:46.263Z,8.70
2019-04-27T14:58:14.554Z,7.50
2019-04-27T15:00:42.825Z,8.10
2019-04-27T15:03:11.091Z,9.37
2019-04-27T15:05:39.370Z,9.03
2019-04-27T15:08:09.698Z,8.47
2019-04-27T15:10:37.656Z,10.20
2019-04-27T15:13:07.943Z,9.90
2019-04-27T15:15:35.962Z,8.95
2019-04-27T15:18:05.596Z,10.30
2019-04-27T15:23:13.276Z,8.50
2019-04-27T15:25:45.196Z,10.07
2019-04-27T15:31:22.442Z,8.27
2019-04-27T15:33:59.010Z,8.77
2019-04-27T15:36:46.362Z,8.90
2019-04-27T15:39:33.752Z,9.40
2019-04-27T15:44:50.987Z,9.13
2019-04-27T15:47:20.269Z,8.20
2019-04-27T15:49:51.080Z,8.17
2019-04-27T15:52:19.276Z,7.13
2019-04-27T15:54:48.102Z,8.13
2019-04-27T16:02:58.309Z,8.88
2019-04-27T16:05:28.718Z,8.63
2019-04-27T16:08:15.136Z,8.10
2019-04-27T16:10:40.288Z,7.23
2019-04-27T16:15:58.406Z,9.57
2019-04-27T16:21:14.810Z,6.70
2019-04-27T16:23:43.508Z,8.03
2019-04-27T16:26:14.976Z,7.80
2019-04-27T16:28:43.169Z,7.55
2019-04-27T16:31:11.768Z,7.50
2019-04-27T16:33:40.452Z,7.83
2019-04-27T16:36:09.693Z,7.37
2019-04-27T16:41:28.180Z,8.63
2019-04-27T16:43:58.207Z,10.38
2019-04-27T16:46:28.534Z,8.50
2019-04-27T16:48:59.433Z,8.88
2019-04-27T16:51:29.733Z,9.10
2019-04-27T16:53:58.450Z,9.73
2019-04-27T16:56:28.497Z,9.23
2019-04-27T16:59:11.478Z,9.20
2019-04-27T17:04:11.373Z,7.35
2019-04-27T17:06:39.125Z,7.45
2019-04-27T17:09:09.211Z,6.90
2019-04-27T17:11:38.792Z,7.13
2019-04-27T17:22:03.651Z,6.42
2019-04-27T17:27:11.592Z,6.60
2019-04-27T17:30:01.686Z,6.23
2019-04-27T17:32:51.068Z,7.30
2019-04-27T17:35:19.347Z,8.03
2019-04-27T17:37:48.861Z,7.80
2019-04-27T17:40:17.682Z,8.28
2019-04-27T17:42:45.953Z,7.37
2019-04-27T17:45:14.305Z,8.40
2019-04-27T17:47:42.581Z,7.50
2019-04-27T17:50:50.890Z,6.67
2019-04-27T17:53:20.427Z,8.30
2019-04-27T17:55:49.173Z,9.63
2019-04-27T17:58:18.047Z,8.98
2019-04-27T18:03:17.591Z,9.10
2019-04-27T18:05:50.066Z,10.00
2019-04-27T18:08:19.994Z,9.40
2019-04-27T18:10:46.635Z,10.43
2019-04-27T18:13:18.993Z,12.47
2019-04-27T18:15:45.669Z,11.50
2019-04-27T18:18:34.064Z,12.73
2019-04-27T18:21:02.341Z,12.60
2019-04-27T18:26:56.414Z,13.60
2019-04-27T18:29:22.840Z,13.00
2019-04-27T18:31:54.559Z,13.30
2019-04-27T18:34:21.318Z,12.67
2019-04-27T18:36:49.611Z,13.30
2019-04-27T18:39:18.255Z,13.83
2019-04-27T18:41:50.576Z,13.60
2019-04-27T18:44:19.143Z,13.10
2019-04-27T18:46:48.926Z,11.60
2019-04-27T18:49:38.629Z,12.03
2019-04-27T18:52:26.190Z,12.05
2019-04-27T18:54:54.468Z,10.20
2019-04-27T18:57:22.736Z,10.17
2019-04-27T18:59:51.020Z,8.73
2019-04-27T19:02:19.302Z,9.43
2019-04-27T19:04:49.948Z,8.90
2019-04-27T19:07:17.580Z,8.93
2019-04-27T19:09:47.721Z,9.00
2019-04-27T19:12:15.858Z,9.67
2019-04-27T19:14:44.153Z,9.13
2019-04-27T19:17:12.435Z,10.38
2019-04-27T19:19:40.747Z,12.43
2019-04-27T19:22:09.098Z,11.83
2019-04-27T19:24:37.383Z,11.13
2019-04-27T19:27:44.137Z,13.90
2019-04-27T19:30:31.609Z,14.13
2019-04-27T19:32:59.902Z,13.80
2019-04-27T19:35:28.745Z,14.13
2019-04-27T19:37:59.017Z,16.05
2019-04-27T19:40:29.039Z,15.55
2019-04-27T19:42:58.838Z,16.87
2019-04-27T19:45:29.124Z,17.97
2019-04-27T19:47:57.295Z,21.65
2019-04-27T19:50:25.565Z,17.63
2019-04-27T19:52:53.869Z,18.40
2019-04-27T19:55:22.154Z,18.87
2019-04-27T19:57:50.441Z,13.67
2019-04-27T20:01:09.682Z,14.28
2019-04-27T20:06:16.144Z,13.00
2019-04-27T20:09:03.540Z,11.67
2019-04-27T20:11:31.832Z,12.40
2019-04-27T20:14:00.803Z,12.57
2019-04-27T20:16:31.777Z,13.27
2019-04-27T20:19:01.480Z,13.33
2019-04-27T20:21:31.108Z,13.48
2019-04-27T20:23:59.380Z,14.20
2019-04-27T20:26:27.658Z,13.38
2019-04-27T20:28:55.927Z,9.10
2019-04-27T20:31:24.201Z,6.87
2019-04-27T20:33:53.969Z,9.50
2019-04-27T20:36:22.482Z,10.00
2019-04-27T20:38:50.998Z,7.80
2019-04-27T20:41:21.830Z,7.85
2019-04-27T20:43:51.058Z,7.60
2019-04-27T20:46:22.668Z,8.10
2019-04-27T20:48:51.239Z,7.90
2019-04-27T20:54:11.514Z,11.93
2019-04-27T20:56:39.693Z,8.07
2019-04-27T20:59:07.954Z,9.90
2019-04-27T21:01:36.227Z,10.73
2019-04-27T21:04:04.500Z,10.00
2019-04-27T21:06:51.903Z,12.77
2019-04-27T21:09:21.323Z,8.73
2019-04-27T21:11:50.169Z,9.33
2019-04-27T21:14:18.435Z,8.07
2019-04-27T21:19:25.652Z,9.20
2019-04-27T21:21:53.937Z,8.35
2019-04-27T21:24:22.788Z,8.40
2019-04-27T21:26:52.210Z,8.00
2019-04-27T21:29:20.986Z,9.68
2019-04-27T21:31:51.994Z,7.45
2019-04-27T21:34:20.458Z,7.70
2019-04-27T21:36:48.739Z,9.13
2019-04-27T21:39:16.988Z,8.50
2019-04-27T21:41:45.277Z,6.80
2019-04-27T21:44:13.538Z,6.93
2019-04-27T21:46:41.845Z,7.03
2019-04-27T21:49:12.447Z,11.60
2019-04-27T21:52:01.229Z,6.97
2019-04-27T21:57:08.144Z,5.93
2019-04-27T21:59:36.412Z,9.00
2019-04-27T22:04:43.809Z,5.27
2019-04-27T22:07:12.061Z,5.80
2019-04-27T22:09:43.054Z,6.67
2019-04-27T22:12:11.234Z,8.60
2019-04-27T22:14:40.320Z,9.03
2019-04-27T22:17:08.602Z,6.27
2019-04-27T22:19:36.872Z,8.90
2019-04-27T22:24:44.092Z,8.20
2019-04-27T22:27:12.354Z,12.70
2019-04-27T22:29:40.646Z,6.97
2019-04-27T22:32:08.914Z,9.85
2019-04-27T22:34:37.168Z,6.22
2019-04-27T22:37:05.447Z,7.55
2019-04-27T22:42:31.773Z,8.40
2019-04-27T22:47:47.742Z,8.50
2019-04-27T22:50:16.013Z,13.80
2019-04-27T22:52:44.270Z,8.73
2019-04-27T22:55:12.542Z,10.90
2019-04-27T23:00:48.887Z,8.40
2019-04-27T23:06:06.108Z,9.05
2019-04-27T23:08:34.384Z,11.97
2019-04-27T23:11:02.825Z,10.63
2019-04-27T23:13:31.164Z,9.00
2019-04-27T23:18:48.387Z,17.30
2019-04-27T23:21:16.670Z,12.83
2019-04-27T23:23:44.936Z,9.90
2019-04-27T23:26:13.225Z,12.00
2019-04-27T23:28:41.494Z,15.57
2019-04-27T23:36:27.662Z,13.97
2019-04-27T23:38:55.920Z,15.90
2019-04-27T23:41:24.277Z,13.53
2019-04-27T23:43:52.563Z,15.60
2019-04-27T23:46:21.486Z,13.73
2019-04-27T23:48:52.061Z,17.90
2019-04-27T23:51:39.942Z,17.70
2019-04-27T23:54:08.231Z,15.63
2019-04-27T23:56:36.499Z,15.97
2019-04-27T23:59:04.857Z,17.30
